createdAt,value
2023-01-13T00:03:34.224Z,19.00
2023-01-13T00:08:56.014Z,18.98
2023-01-13T00:14:18.331Z,18.95
2023-01-13T00:19:43.296Z,18.91
2023-01-13T00:25:06.890Z,18.89
2023-01-13T00:30:28.571Z,18.88
2023-01-13T00:35:58.008Z,18.87
2023-01-13T00:41:24.361Z,18.83
2023-01-13T00:46:46.340Z,18.80
2023-01-13T00:52:08.067Z,18.77
2023-01-13T00:57:29.760Z,18.76
2023-01-13T01:02:51.531Z,18.73
2023-01-13T01:08:13.213Z,18.71
2023-01-13T01:13:35.527Z,18.70
2023-01-13T01:18:58.467Z,18.68
2023-01-13T01:24:20.245Z,18.67
2023-01-13T01:29:41.962Z,18.64
2023-01-13T01:35:05.158Z,18.61
2023-01-13T01:40:27.794Z,18.60
2023-01-13T01:45:52.859Z,18.57
2023-01-13T01:51:14.921Z,18.56
2023-01-13T01:56:38.257Z,18.55
2023-01-13T02:02:00.481Z,18.52
2023-01-13T02:07:26.294Z,18.51
2023-01-13T02:12:49.248Z,18.49
2023-01-13T02:18:16.733Z,18.48
2023-01-13T02:24:24.096Z,18.49
2023-01-13T02:30:14.839Z,18.45
2023-01-13T02:35:55.797Z,18.44
2023-01-13T02:41:46.700Z,18.41
2023-01-13T02:47:16.353Z,18.40
2023-01-13T02:52:43.678Z,18.38
2023-01-13T02:58:09.661Z,18.37
2023-01-13T03:03:31.339Z,18.35
2023-01-13T03:08:59.164Z,18.35
2023-01-13T03:14:48.951Z,18.34
2023-01-13T03:20:21.874Z,18.33
2023-01-13T03:25:54.443Z,18.32
2023-01-13T03:31:28.442Z,18.30
2023-01-13T03:36:54.486Z,18.29
2023-01-13T03:42:23.927Z,18.26
2023-01-13T03:47:55.505Z,18.24
2023-01-13T03:53:28.231Z,18.24
2023-01-13T03:58:53.236Z,18.23
2023-01-13T04:04:26.767Z,18.23
2023-01-13T04:09:53.266Z,18.21
2023-01-13T04:15:17.333Z,18.20
2023-01-13T04:20:40.267Z,18.20
2023-01-13T04:26:02.016Z,18.18
2023-01-13T04:31:23.875Z,18.15
2023-01-13T04:36:45.723Z,18.15
2023-01-13T04:42:07.448Z,18.13
2023-01-13T04:47:29.156Z,18.13
2023-01-13T04:52:51.899Z,18.12
2023-01-13T04:58:13.592Z,18.11
2023-01-13T05:03:35.316Z,18.11
2023-01-13T05:08:57.480Z,18.09
2023-01-13T05:14:38.127Z,18.08
2023-01-13T05:19:59.875Z,18.07
2023-01-13T05:25:21.832Z,18.07
2023-01-13T05:30:46.309Z,18.07
2023-01-13T05:36:08.554Z,18.06
2023-01-13T05:41:48.793Z,18.05
2023-01-13T05:47:10.751Z,18.03
2023-01-13T05:52:32.607Z,18.02
2023-01-13T05:57:54.389Z,18.02
2023-01-13T06:03:16.475Z,18.01
2023-01-13T06:08:39.900Z,18.04
2023-01-13T06:14:01.835Z,18.27
2023-01-13T06:19:23.529Z,18.60
2023-01-13T06:24:48.805Z,18.91
2023-01-13T06:30:11.278Z,19.16
2023-01-13T06:35:35.820Z,19.33
2023-01-13T06:40:57.688Z,19.52
2023-01-13T06:46:19.461Z,19.66
2023-01-13T06:51:41.200Z,19.68
2023-01-13T06:57:03.219Z,19.64
2023-01-13T07:02:24.996Z,19.56
2023-01-13T07:07:46.835Z,19.48
2023-01-13T07:13:27.271Z,19.40
2023-01-13T07:18:48.951Z,19.29
2023-01-13T07:24:10.702Z,19.19
2023-01-13T07:29:32.433Z,19.11
2023-01-13T07:34:54.279Z,19.02
2023-01-13T07:40:16.220Z,18.97
2023-01-13T07:45:38.017Z,19.02
2023-01-13T07:51:04.904Z,19.29
2023-01-13T07:56:26.690Z,19.56
2023-01-13T08:01:48.563Z,19.84
2023-01-13T08:07:10.355Z,20.08
2023-01-13T08:12:52.780Z,20.30
2023-01-13T08:18:19.614Z,20.48
2023-01-13T08:23:43.090Z,20.61
2023-01-13T08:29:04.813Z,20.74
2023-01-13T08:34:26.686Z,20.84
2023-01-13T08:39:48.558Z,20.92
2023-01-13T08:45:11.273Z,20.95
2023-01-13T08:50:33.168Z,20.92
2023-01-13T08:55:54.969Z,20.84
2023-01-13T09:01:22.734Z,20.73
2023-01-13T09:06:44.695Z,20.54
2023-01-13T09:12:26.323Z,20.41
2023-01-13T09:17:48.361Z,20.27
2023-01-13T09:23:11.228Z,20.16
2023-01-13T09:28:33.707Z,20.05
2023-01-13T09:34:14.260Z,19.95
2023-01-13T09:39:36.603Z,19.84
2023-01-13T09:45:11.723Z,19.77
2023-01-13T09:50:55.855Z,19.68
2023-01-13T09:56:17.633Z,19.64
2023-01-13T10:01:54.070Z,19.62
2023-01-13T10:07:15.900Z,19.60
2023-01-13T10:12:56.501Z,19.57
2023-01-13T10:18:36.769Z,19.56
2023-01-13T10:24:14.819Z,19.65
2023-01-13T10:29:36.973Z,19.75
2023-01-13T10:34:58.785Z,19.83
2023-01-13T10:40:20.671Z,19.87
2023-01-13T10:46:02.289Z,19.89
2023-01-13T10:51:27.086Z,19.90
2023-01-13T10:56:50.577Z,19.93
2023-01-13T11:02:25.666Z,20.00
2023-01-13T11:07:52.320Z,20.07
2023-01-13T11:13:18.841Z,20.13
2023-01-13T11:19:02.623Z,20.19
2023-01-13T11:24:37.222Z,20.23
2023-01-13T11:30:17.415Z,20.26
2023-01-13T11:35:48.175Z,20.29
2023-01-13T11:41:42.204Z,20.28
2023-01-13T11:47:04.121Z,20.24
2023-01-13T11:52:32.196Z,20.22
2023-01-13T11:58:00.300Z,20.18
2023-01-13T12:03:35.844Z,20.15
2023-01-13T12:09:12.065Z,20.11
2023-01-13T12:14:54.363Z,20.04
2023-01-13T12:20:44.061Z,20.02
2023-01-13T12:26:10.546Z,19.95
2023-01-13T12:31:36.415Z,19.93
2023-01-13T12:37:18.577Z,19.90
2023-01-13T12:43:26.350Z,19.87
2023-01-13T12:48:57.410Z,19.79
2023-01-13T12:54:31.172Z,19.84
2023-01-13T13:00:05.037Z,19.88
2023-01-13T13:05:35.111Z,19.94
2023-01-13T13:11:33.537Z,20.02
2023-01-13T13:16:55.322Z,20.07
2023-01-13T13:22:21.188Z,20.14
2023-01-13T13:28:12.997Z,20.22
2023-01-13T13:33:46.569Z,20.28
2023-01-13T13:39:44.741Z,20.35
2023-01-13T13:45:42.432Z,20.34
2023-01-13T13:51:24.991Z,20.30
2023-01-13T13:56:50.450Z,20.29
2023-01-13T14:02:32.321Z,20.29
2023-01-13T14:08:07.874Z,20.27
2023-01-13T14:13:31.611Z,20.23
2023-01-13T14:18:53.388Z,20.21
2023-01-13T14:24:17.673Z,20.17
2023-01-13T14:29:40.009Z,20.18
2023-01-13T14:35:01.887Z,20.18
2023-01-13T14:40:42.516Z,20.19
2023-01-13T14:46:04.560Z,20.19
2023-01-13T14:51:28.635Z,20.20
2023-01-13T14:56:51.810Z,20.14
2023-01-13T15:02:25.406Z,20.11
2023-01-13T15:07:52.831Z,20.05
2023-01-13T15:13:29.572Z,20.05
2023-01-13T15:18:52.379Z,20.02
2023-01-13T15:24:14.104Z,20.03
2023-01-13T15:29:35.799Z,20.06
2023-01-13T15:34:57.484Z,20.10
2023-01-13T15:40:21.868Z,20.12
2023-01-13T15:46:02.875Z,20.13
2023-01-13T15:51:24.613Z,20.14
2023-01-13T15:56:46.663Z,20.17
2023-01-13T16:02:15.080Z,20.16
2023-01-13T16:07:37.176Z,20.14
2023-01-13T16:12:58.934Z,20.15
2023-01-13T16:18:24.516Z,20.12
2023-01-13T16:23:46.733Z,20.06
2023-01-13T16:29:12.703Z,20.07
2023-01-13T16:34:34.626Z,20.06
2023-01-13T16:39:56.358Z,20.05
2023-01-13T16:45:18.715Z,20.05
2023-01-13T16:50:42.631Z,20.05
2023-01-13T16:56:11.787Z,20.04
2023-01-13T17:01:36.022Z,20.06
2023-01-13T17:07:00.619Z,20.07
2023-01-13T17:12:22.349Z,20.07
2023-01-13T17:17:48.155Z,20.09
2023-01-13T17:23:09.978Z,20.10
2023-01-13T17:28:31.670Z,20.10
2023-01-13T17:33:53.614Z,20.12
2023-01-13T17:39:20.947Z,20.12
2023-01-13T17:44:42.759Z,20.14
2023-01-13T17:50:05.488Z,20.18
2023-01-13T17:55:27.212Z,20.22
2023-01-13T18:00:50.126Z,20.28
2023-01-13T18:06:17.999Z,20.31
2023-01-13T18:11:39.845Z,20.32
2023-01-13T18:17:01.622Z,20.33
2023-01-13T18:22:45.248Z,20.29
2023-01-13T18:28:06.973Z,20.24
2023-01-13T18:33:28.689Z,20.22
2023-01-13T18:38:50.960Z,20.20
2023-01-13T18:44:12.683Z,20.19
2023-01-13T18:49:34.417Z,20.17
2023-01-13T18:54:56.203Z,20.15
2023-01-13T19:00:20.585Z,20.14
2023-01-13T19:05:43.144Z,20.12
2023-01-13T19:11:06.578Z,20.11
2023-01-13T19:16:28.580Z,20.09
2023-01-13T19:21:50.308Z,20.08
2023-01-13T19:27:14.707Z,20.08
2023-01-13T19:32:36.413Z,20.07
2023-01-13T19:37:58.142Z,20.06
2023-01-13T19:43:38.539Z,20.05
2023-01-13T19:49:01.000Z,20.03
2023-01-13T19:54:22.733Z,20.03
2023-01-13T19:59:44.432Z,20.03
2023-01-13T20:05:08.199Z,20.03
2023-01-13T20:10:32.926Z,20.02
2023-01-13T20:15:54.867Z,20.01
2023-01-13T20:21:16.609Z,20.01
2023-01-13T20:26:40.076Z,20.01
2023-01-13T20:32:01.868Z,20.05
2023-01-13T20:37:23.660Z,20.08
2023-01-13T20:42:46.482Z,20.10
2023-01-13T20:48:08.180Z,20.13
2023-01-13T20:53:29.908Z,20.13
2023-01-13T20:58:51.670Z,20.14
2023-01-13T21:04:13.421Z,20.17
2023-01-13T21:09:35.910Z,20.20
2023-01-13T21:15:16.567Z,20.23
2023-01-13T21:20:39.356Z,20.25
2023-01-13T21:26:01.141Z,20.29
2023-01-13T21:31:23.006Z,20.31
2023-01-13T21:36:45.131Z,20.31
2023-01-13T21:42:25.720Z,20.30
2023-01-13T21:47:50.685Z,20.25
2023-01-13T21:53:12.476Z,20.20
2023-01-13T21:58:34.214Z,20.15
2023-01-13T22:04:13.881Z,20.11
2023-01-13T22:09:35.615Z,20.07
2023-01-13T22:14:57.761Z,20.04
2023-01-13T22:20:20.124Z,20.02
2023-01-13T22:25:41.830Z,19.99
2023-01-13T22:31:07.931Z,19.98
2023-01-13T22:36:29.644Z,19.91
2023-01-13T22:41:51.866Z,19.84
2023-01-13T22:47:13.559Z,19.80
2023-01-13T22:52:35.635Z,19.74
2023-01-13T22:57:57.522Z,19.67
2023-01-13T23:03:19.748Z,19.63
2023-01-13T23:08:41.839Z,19.57
2023-01-13T23:14:06.590Z,19.52
2023-01-13T23:19:28.276Z,19.47
2023-01-13T23:24:49.948Z,19.43
2023-01-13T23:30:12.132Z,19.38
2023-01-13T23:35:33.913Z,19.35
2023-01-13T23:40:56.199Z,19.32
2023-01-13T23:46:18.113Z,19.28
2023-01-13T23:51:39.861Z,19.25
2023-01-13T23:57:01.595Z,19.22
